Time;durP1;ratioP1;P1;durP2;ratioP2;P2;SDS_P1;SDS_P2;PMS_P1;PMS_P2;Temp;Humidity;BMP_temperature;BMP_pressure;BME280_temperature;BME280_humidity;BME280_pressure;Samples;Min_cycle;Max_cycle;Signal;HPM_P1;HPM_P2
2021/08/01 00:03:01;;;;;;;3.37;2.70;;;23.80;29.90;;;;;;10463729;28;20228;-74
2021/08/01 00:08:05;;;;;;;3.50;2.47;;;23.70;30.10;;;;;;10462544;28;20229;-74
2021/08/01 00:13:09;;;;;;;3.03;1.87;;;23.60;30.00;;;;;;10461050;28;20248;-74
2021/08/01 00:18:14;;;;;;;3.13;2.20;;;23.50;30.50;;;;;;10466916;28;20221;-69
2021/08/01 00:23:17;;;;;;;4.30;2.30;;;23.50;31.60;;;;;;10457866;28;20263;-69
2021/08/01 00:28:20;;;;;;;2.43;1.90;;;23.40;31.00;;;;;;10461894;28;20277;-69
2021/08/01 00:33:25;;;;;;;3.77;2.13;;;23.30;30.90;;;;;;10462750;28;20228;-69
2021/08/01 00:38:28;;;;;;;2.30;2.03;;;23.20;31.60;;;;;;10457899;28;20217;-69
2021/08/01 00:43:33;;;;;;;3.50;2.00;;;23.10;30.90;;;;;;10467169;28;20220;-76
2021/08/01 00:48:37;;;;;;;2.07;1.67;;;23.10;31.50;;;;;;10479257;28;20215;-76
2021/08/01 00:53:42;;;;;;;2.20;2.00;;;23.00;31.50;;;;;;10475077;28;20235;-76
2021/08/01 00:58:45;;;;;;;3.47;2.20;;;22.90;31.80;;;;;;10476744;28;20232;-76
2021/08/01 01:04:00;;;;;;;2.57;2.20;;;22.80;31.70;;;;;;10475079;28;20737;-76
2021/08/01 01:09:07;;;;;;;3.27;2.20;;;22.80;32.80;;;;;;10460369;28;20239;-76
2021/08/01 01:14:15;;;;;;;2.60;2.27;;;22.70;32.60;;;;;;10464895;28;20228;-76
2021/08/01 01:19:24;;;;;;;2.93;2.30;;;22.70;32.50;;;;;;10470851;28;20224;-76
2021/08/01 01:24:31;;;;;;;4.47;2.30;;;22.60;32.80;;;;;;10468135;28;20739;-76
2021/08/01 01:29:41;;;;;;;3.23;2.23;;;22.50;32.70;;;;;;10474113;28;20220;-76
2021/08/01 01:34:58;;;;;;;2.83;2.20;;;22.40;33.50;;;;;;10473146;28;20228;-75
2021/08/01 01:40:03;;;;;;;3.13;2.30;;;22.30;33.40;;;;;;10474376;28;20253;-76
2021/08/01 01:45:07;;;;;;;3.47;2.20;;;22.20;32.80;;;;;;10467657;28;20696;-76
2021/08/01 01:50:12;;;;;;;3.17;2.33;;;22.10;32.60;;;;;;10470331;28;20229;-76
2021/08/01 01:55:18;;;;;;;4.90;2.30;;;22.00;33.10;;;;;;10470594;28;20232;-69
2021/08/01 02:00:22;;;;;;;2.70;1.97;;;21.90;33.70;;;;;;10455622;28;20593;-69
2021/08/01 02:05:25;;;;;;;2.43;2.23;;;21.70;33.10;;;;;;10455916;28;20233;-69
2021/08/01 02:10:35;;;;;;;3.13;2.57;;;21.60;33.40;;;;;;10451578;28;20224;-69
2021/08/01 02:15:43;;;;;;;2.23;2.03;;;21.40;35.10;;;;;;10457277;28;20221;-70
2021/08/01 02:20:49;;;;;;;3.00;2.10;;;21.20;35.00;;;;;;10460175;28;20826;-69
2021/08/01 02:25:55;;;;;;;2.57;2.03;;;21.10;34.90;;;;;;10456291;28;20251;-69
2021/08/01 02:31:00;;;;;;;2.83;2.33;;;21.00;35.80;;;;;;10462942;28;20229;-69
2021/08/01 02:36:06;;;;;;;3.27;2.67;;;20.90;34.80;;;;;;10455421;28;20653;-70
2021/08/01 02:41:18;;;;;;;3.77;2.30;;;20.70;35.60;;;;;;10457444;28;20236;-69
2021/08/01 02:46:27;;;;;;;3.33;2.00;;;20.50;37.30;;;;;;10456915;28;20263;-69
2021/08/01 02:51:33;;;;;;;2.50;2.30;;;20.40;36.90;;;;;;10455920;28;20224;-69
2021/08/01 02:56:38;;;;;;;3.03;2.10;;;20.20;36.70;;;;;;10464071;28;20216;-76
2021/08/01 03:01:42;;;;;;;4.00;2.20;;;20.10;36.60;;;;;;10468696;28;21047;-76
2021/08/01 03:06:47;;;;;;;2.77;2.20;;;20.00;36.50;;;;;;10469421;28;20302;-75
2021/08/01 03:11:51;;;;;;;2.90;2.17;;;19.80;36.70;;;;;;10466712;28;20254;-73
2021/08/01 03:16:57;;;;;;;2.50;2.10;;;19.80;37.20;;;;;;10456327;28;20221;-73
2021/08/01 03:22:00;;;;;;;3.03;2.30;;;19.60;37.70;;;;;;10453582;28;20232;-76
2021/08/01 03:27:05;;;;;;;2.73;2.10;;;19.60;36.70;;;;;;10473358;28;20228;-75
2021/08/01 03:32:09;;;;;;;2.53;2.20;;;19.50;38.40;;;;;;10463845;28;20230;-75
2021/08/01 03:37:12;;;;;;;2.00;1.90;;;19.40;37.50;;;;;;10471474;28;20228;-75
2021/08/01 03:42:16;;;;;;;2.67;2.17;;;19.30;37.50;;;;;;10477895;28;20235;-75
2021/08/01 03:47:19;;;;;;;3.03;2.27;;;19.30;38.70;;;;;;10473724;28;20224;-76
2021/08/01 03:52:23;;;;;;;2.83;1.73;;;19.30;37.90;;;;;;10460527;28;20254;-74
2021/08/01 03:57:27;;;;;;;2.93;2.20;;;19.30;37.80;;;;;;10462175;28;21736;-75
2021/08/01 04:02:30;;;;;;;2.90;2.10;;;19.40;39.40;;;;;;10469284;28;20224;-75
2021/08/01 04:07:34;;;;;;;2.80;1.90;;;19.20;38.80;;;;;;10470328;28;20224;-75
2021/08/01 04:12:38;;;;;;;1.70;1.60;;;19.10;39.10;;;;;;10475592;28;20236;-75
2021/08/01 04:17:42;;;;;;;1.63;1.53;;;19.00;40.00;;;;;;10466265;28;20617;-75
2021/08/01 04:22:46;;;;;;;1.80;1.70;;;19.00;39.10;;;;;;10481247;28;20224;-75
2021/08/01 04:27:50;;;;;;;1.63;1.53;;;19.10;39.20;;;;;;10478467;28;20228;-75
2021/08/01 04:32:53;;;;;;;2.17;1.60;;;19.10;40.10;;;;;;10459194;28;20228;-73
2021/08/01 04:37:57;;;;;;;1.80;1.70;;;19.10;39.30;;;;;;10459742;28;20225;-73
2021/08/01 04:43:01;;;;;;;1.50;1.40;;;19.10;39.50;;;;;;10452977;28;20736;-73
2021/08/01 04:48:05;;;;;;;1.60;1.50;;;19.00;41.40;;;;;;10459270;28;20228;-75
2021/08/01 04:53:08;;;;;;;1.83;1.73;;;18.90;40.00;;;;;;10460219;28;20217;-69
2021/08/01 04:58:13;;;;;;;2.03;1.83;;;18.90;40.00;;;;;;10460551;28;20427;-69
2021/08/01 05:03:16;;;;;;;2.13;2.00;;;18.80;41.10;;;;;;10465230;28;20228;-69
2021/08/01 05:08:19;;;;;;;2.20;2.10;;;18.70;40.90;;;;;;10463703;28;20239;-69
2021/08/01 05:13:24;;;;;;;2.40;2.20;;;18.60;41.10;;;;;;10459208;28;20237;-69
2021/08/01 05:18:27;;;;;;;2.33;2.10;;;18.50;42.30;;;;;;10459310;28;20220;-69
2021/08/01 05:23:30;;;;;;;2.60;2.40;;;18.40;41.30;;;;;;10467307;28;20232;-75
2021/08/01 05:28:35;;;;;;;2.20;1.93;;;18.40;41.70;;;;;;10472228;28;20225;-75
2021/08/01 05:33:38;;;;;;;1.80;1.63;;;18.40;42.50;;;;;;10469552;28;20231;-75
2021/08/01 05:38:41;;;;;;;2.03;1.93;;;18.40;41.60;;;;;;10467015;28;20220;-76
2021/08/01 05:43:46;;;;;;;2.17;2.07;;;18.40;41.80;;;;;;10469470;28;20221;-75
2021/08/01 05:48:49;;;;;;;2.40;2.20;;;18.30;43.00;;;;;;10469949;28;20525;-76
2021/08/01 05:53:52;;;;;;;2.70;2.50;;;18.30;42.20;;;;;;10456738;28;20239;-74
2021/08/01 05:58:57;;;;;;;2.73;2.53;;;18.30;42.40;;;;;;10457145;28;20255;-73
2021/08/01 06:04:00;;;;;;;2.60;2.40;;;18.20;43.00;;;;;;10452634;28;20263;-74
2021/08/01 06:09:04;;;;;;;2.80;2.60;;;18.20;42.00;;;;;;10456823;28;20228;-73
2021/08/01 06:14:08;;;;;;;2.73;2.53;;;18.20;42.50;;;;;;10452748;28;20727;-70
2021/08/01 06:19:11;;;;;;;2.60;2.40;;;18.30;43.20;;;;;;10456533;28;20228;-69
2021/08/01 06:24:15;;;;;;;2.40;2.20;;;18.30;42.50;;;;;;10458088;28;20236;-69
2021/08/01 06:29:19;;;;;;;2.40;2.30;;;18.30;42.20;;;;;;10455010;28;20231;-69
2021/08/01 06:34:23;;;;;;;3.07;2.77;;;18.30;43.00;;;;;;10449848;28;20228;-69
2021/08/01 06:39:27;;;;;;;2.93;2.40;;;18.30;42.30;;;;;;10455491;28;20616;-69
2021/08/01 06:44:31;;;;;;;3.20;2.37;;;18.30;42.60;;;;;;10460422;28;20872;-75
2021/08/01 06:49:35;;;;;;;2.33;2.20;;;18.10;43.00;;;;;;10469336;28;20589;-75
2021/08/01 06:54:50;;;;;;;3.87;2.57;;;18.30;42.90;;;;;;10472761;28;20732;-76
2021/08/01 06:59:55;;;;;;;4.00;2.47;;;18.30;42.90;;;;;;10466989;28;20228;-76
2021/08/01 07:04:58;;;;;;;2.60;2.40;;;18.30;43.60;;;;;;10466961;28;20269;-75
2021/08/01 07:10:02;;;;;;;2.23;2.13;;;18.40;43.20;;;;;;10469912;28;20221;-72
2021/08/01 07:15:08;;;;;;;3.67;2.67;;;18.50;43.20;;;;;;10449639;28;20243;-73
2021/08/01 07:20:13;;;;;;;3.00;2.80;;;18.50;44.20;;;;;;10457485;28;20240;-76
2021/08/01 07:25:17;;;;;;;2.80;2.50;;;18.60;44.00;;;;;;10449656;28;20224;-69
2021/08/01 07:30:22;;;;;;;2.50;2.40;;;18.70;43.30;;;;;;10455541;28;20716;-69
2021/08/01 07:35:25;;;;;;;3.13;2.50;;;18.70;44.20;;;;;;10451613;28;20225;-69
2021/08/01 07:40:28;;;;;;;2.70;2.50;;;18.80;43.40;;;;;;10447692;28;20220;-69
2021/08/01 07:45:34;;;;;;;2.37;2.27;;;18.80;43.30;;;;;;10457422;28;20241;-69
2021/08/01 07:50:38;;;;;;;4.43;2.43;;;18.90;44.30;;;;;;10451903;28;20232;-69
2021/08/01 07:55:43;;;;;;;3.30;2.60;;;18.90;43.80;;;;;;10453422;28;20221;-69
2021/08/01 08:00:47;;;;;;;2.50;2.30;;;19.00;43.90;;;;;;10457416;28;20228;-69
2021/08/01 08:05:51;;;;;;;2.77;2.43;;;19.10;43.90;;;;;;10458888;28;20650;-69
2021/08/01 08:10:55;;;;;;;4.17;2.37;;;19.20;43.40;;;;;;10467823;28;20799;-68
2021/08/01 08:15:59;;;;;;;2.53;2.33;;;19.40;43.80;;;;;;10459414;28;20879;-69
2021/08/01 08:21:02;;;;;;;2.50;2.30;;;19.50;43.60;;;;;;10462042;28;20231;-69
2021/08/01 08:26:05;;;;;;;2.93;2.33;;;19.70;42.90;;;;;;10462425;28;20225;-68
2021/08/01 08:31:10;;;;;;;2.60;2.40;;;19.80;42.60;;;;;;10460904;28;20247;-69
2021/08/01 08:36:13;;;;;;;2.50;2.30;;;19.90;42.70;;;;;;10456359;28;20275;-69
2021/08/01 08:41:17;;;;;;;2.30;2.10;;;19.90;42.40;;;;;;10459066;28;20631;-69
2021/08/01 08:46:22;;;;;;;2.57;2.37;;;20.00;42.90;;;;;;10461168;28;20224;-69
2021/08/01 08:51:26;;;;;;;2.63;2.33;;;20.10;42.90;;;;;;10458234;28;20239;-68
2021/08/01 08:56:30;;;;;;;2.50;2.40;;;20.20;43.10;;;;;;10460027;28;20231;-68
2021/08/01 09:01:37;;;;;;;2.90;2.40;;;20.30;43.10;;;;;;10452765;28;20298;-68
2021/08/01 09:06:41;;;;;;;2.70;2.50;;;20.50;43.30;;;;;;10462216;28;20683;-68
2021/08/01 09:11:45;;;;;;;2.60;2.40;;;20.60;42.30;;;;;;10463104;28;20572;-68
2021/08/01 09:16:51;;;;;;;2.73;2.40;;;20.70;42.20;;;;;;10453814;28;20758;-69
2021/08/01 09:22:09;;;;;;;4.37;2.30;;;20.70;42.30;;;;;;10461675;28;20236;-69
2021/08/01 09:27:27;;;;;;;2.87;2.23;;;20.70;42.10;;;;;;10454253;28;20235;-69
2021/08/01 09:32:45;;;;;;;2.40;2.20;;;20.80;42.30;;;;;;10456899;28;20227;-72
2021/08/01 09:37:56;;;;;;;2.40;2.20;;;20.80;41.70;;;;;;10453723;28;20223;-72
2021/08/01 09:43:07;;;;;;;2.50;2.30;;;20.90;41.90;;;;;;10449679;28;20228;-71
2021/08/01 09:48:20;;;;;;;2.37;2.27;;;20.80;41.60;;;;;;10448414;28;20213;-71
2021/08/01 09:53:23;;;;;;;2.80;2.27;;;20.90;42.40;;;;;;10454258;28;20570;-71
2021/08/01 09:58:35;;;;;;;2.17;2.00;;;20.90;40.70;;;;;;10452008;28;20216;-71
2021/08/01 10:03:42;;;;;;;2.43;2.23;;;20.90;41.70;;;;;;10461882;28;20228;-71
2021/08/01 10:08:47;;;;;;;2.47;2.10;;;20.90;40.80;;;;;;10460339;28;20320;-71
2021/08/01 10:13:52;;;;;;;2.20;2.00;;;20.90;40.70;;;;;;10457715;28;21217;-68
2021/08/01 10:18:57;;;;;;;2.97;2.20;;;21.00;40.80;;;;;;10457832;28;20695;-68
2021/08/01 10:24:02;;;;;;;2.37;1.90;;;21.00;40.60;;;;;;10456337;28;20228;-68
2021/08/01 10:29:10;;;;;;;2.20;1.77;;;21.00;41.20;;;;;;10456488;28;20228;-68
2021/08/01 10:34:18;;;;;;;2.43;2.10;;;21.00;40.60;;;;;;10456772;28;20248;-68
2021/08/01 10:39:23;;;;;;;2.27;2.07;;;21.00;41.10;;;;;;10459212;28;20771;-68
2021/08/01 10:44:26;;;;;;;2.30;2.20;;;21.00;41.00;;;;;;10460582;28;20244;-68
2021/08/01 10:49:31;;;;;;;2.50;2.30;;;21.00;41.00;;;;;;10453025;28;20228;-69
2021/08/01 10:54:34;;;;;;;2.50;2.30;;;21.10;41.70;;;;;;10459241;28;20233;-68
2021/08/01 11:00:06;;;;;;;2.83;2.57;;;21.20;41.20;;;;;;10457345;28;20244;-69
2021/08/01 11:05:36;;;;;;;2.43;2.23;;;21.20;41.10;;;;;;10417372;28;20220;-68
2021/08/01 11:10:41;;;;;;;2.87;1.90;;;21.20;40.70;;;;;;10439055;28;20734;-68
2021/08/01 11:15:47;;;;;;;2.87;2.13;;;21.20;41.30;;;;;;10441245;28;20231;-69
2021/08/01 11:20:56;;;;;;;2.00;1.90;;;21.30;40.30;;;;;;10443460;28;20229;-68
2021/08/01 11:26:11;;;;;;;2.30;2.20;;;21.40;40.10;;;;;;10438292;28;20854;-68
2021/08/01 11:31:22;;;;;;;2.90;2.20;;;21.40;40.60;;;;;;10441280;28;20227;-69
2021/08/01 11:36:30;;;;;;;2.53;2.33;;;21.50;40.50;;;;;;10418682;28;1147483;-68
2021/08/01 11:41:41;;;;;;;2.50;2.30;;;21.50;40.30;;;;;;10458786;28;20225;-68
2021/08/01 11:47:07;;;;;;;2.20;2.10;;;21.50;40.80;;;;;;10458177;28;20654;-68
2021/08/01 11:52:14;;;;;;;2.47;2.27;;;21.50;40.70;;;;;;10456029;28;20220;-68
2021/08/01 11:57:17;;;;;;;2.60;2.37;;;21.50;41.10;;;;;;10460880;28;20232;-68
2021/08/01 12:02:21;;;;;;;2.50;2.30;;;21.50;41.20;;;;;;10457367;28;20220;-68
2021/08/01 12:07:39;;;;;;;2.50;2.30;;;21.60;41.00;;;;;;10457586;28;20709;-69
2021/08/01 12:12:43;;;;;;;2.70;2.20;;;21.60;40.90;;;;;;10458341;28;20228;-69
2021/08/01 12:17:46;;;;;;;2.00;1.90;;;21.60;40.40;;;;;;10461136;28;20255;-68
2021/08/01 12:22:51;;;;;;;2.40;2.20;;;21.60;40.80;;;;;;10458961;28;20228;-69
2021/08/01 12:27:55;;;;;;;2.30;2.10;;;21.70;41.20;;;;;;10454376;28;20225;-68
2021/08/01 12:32:58;;;;;;;2.40;2.27;;;21.70;41.00;;;;;;10454581;28;20225;-68
2021/08/01 12:38:05;;;;;;;3.67;2.20;;;21.70;41.10;;;;;;10452563;28;20226;-72
2021/08/01 12:43:11;;;;;;;2.60;2.40;;;21.70;41.20;;;;;;10459316;28;20847;-69
2021/08/01 12:48:16;;;;;;;2.23;2.03;;;21.80;40.70;;;;;;10459390;28;20225;-68
2021/08/01 12:53:23;;;;;;;1.93;1.83;;;21.70;40.70;;;;;;10458052;28;20290;-69
2021/08/01 12:58:30;;;;;;;3.70;2.10;;;21.70;40.60;;;;;;10456413;28;20224;-68
2021/08/01 13:03:34;;;;;;;2.40;2.20;;;21.70;41.20;;;;;;10461118;28;20225;-68
2021/08/01 13:08:40;;;;;;;2.43;2.23;;;21.70;40.70;;;;;;10450174;28;20274;-68
2021/08/01 13:13:51;;;;;;;2.00;1.90;;;21.70;40.80;;;;;;10450941;28;20489;-68
2021/08/01 13:19:09;;;;;;;2.50;2.30;;;21.70;40.80;;;;;;10448645;28;20216;-68
2021/08/01 13:24:16;;;;;;;2.50;2.30;;;21.60;41.20;;;;;;10458417;28;20225;-68
2021/08/01 13:29:22;;;;;;;1.97;1.83;;;21.60;41.50;;;;;;10454142;28;20224;-68
2021/08/01 13:34:42;;;;;;;1.93;1.83;;;21.70;40.80;;;;;;10459217;28;20234;-68
2021/08/01 13:39:52;;;;;;;2.00;1.90;;;21.70;40.50;;;;;;10455102;28;20227;-68
2021/08/01 13:45:02;;;;;;;2.20;2.00;;;21.80;40.40;;;;;;10451982;28;20240;-68
2021/08/01 13:50:11;;;;;;;2.37;1.83;;;21.80;40.00;;;;;;10426763;28;20246;-72
2021/08/01 13:55:17;;;;;;;1.93;1.83;;;21.80;41.20;;;;;;10455491;28;20228;-68
2021/08/01 14:00:20;;;;;;;2.37;2.13;;;21.80;40.40;;;;;;10450211;28;20595;-67
2021/08/01 14:05:24;;;;;;;2.30;1.93;;;21.70;40.20;;;;;;10455239;28;20236;-71
2021/08/01 14:10:29;;;;;;;2.17;2.00;;;21.70;40.30;;;;;;10450038;28;20617;-68
2021/08/01 14:15:32;;;;;;;2.07;1.87;;;21.70;40.50;;;;;;10454722;28;20235;-71
2021/08/01 14:20:35;;;;;;;2.10;2.00;;;21.70;40.50;;;;;;10452346;28;20243;-71
2021/08/01 14:25:41;;;;;;;2.00;1.90;;;21.70;40.60;;;;;;10454757;28;20228;-71
2021/08/01 14:30:44;;;;;;;2.43;1.97;;;21.70;40.60;;;;;;10455323;28;20643;-71
2021/08/01 14:35:48;;;;;;;1.83;1.73;;;21.80;40.20;;;;;;10450567;28;20598;-71
2021/08/01 14:40:53;;;;;;;2.10;1.90;;;21.90;40.20;;;;;;10453986;28;20232;-74
2021/08/01 14:45:56;;;;;;;3.50;1.90;;;21.90;40.20;;;;;;10460605;28;20243;-74
2021/08/01 14:51:01;;;;;;;1.90;1.80;;;22.00;40.10;;;;;;10453977;28;20851;-71
2021/08/01 14:56:07;;;;;;;2.00;1.90;;;22.10;40.20;;;;;;10457234;28;20251;-71
2021/08/01 15:01:19;;;;;;;2.10;2.00;;;22.20;39.20;;;;;;10450526;28;20234;-71
2021/08/01 15:06:31;;;;;;;2.07;1.47;;;22.30;38.50;;;;;;10453032;28;20250;-71
2021/08/01 15:11:46;;;;;;;1.90;1.80;;;22.30;38.10;;;;;;10453350;28;20228;-71
2021/08/01 15:16:56;;;;;;;1.70;1.60;;;22.30;38.50;;;;;;10452842;28;20221;-71
2021/08/01 15:22:06;;;;;;;1.90;1.80;;;22.30;38.50;;;;;;10457366;28;20237;-71
2021/08/01 15:27:12;;;;;;;1.70;1.60;;;22.30;38.50;;;;;;10450553;28;20697;-75
2021/08/01 15:32:17;;;;;;;1.57;1.47;;;22.30;38.50;;;;;;10444259;28;20232;-71
2021/08/01 15:37:20;;;;;;;1.93;1.80;;;22.40;38.60;;;;;;10443805;28;20225;-71
2021/08/01 15:42:25;;;;;;;2.00;1.90;;;22.40;38.60;;;;;;10449685;28;20235;-71
2021/08/01 15:47:28;;;;;;;1.70;1.60;;;22.40;38.70;;;;;;10451711;28;20992;-71
2021/08/01 15:52:41;;;;;;;1.60;1.50;;;22.40;38.60;;;;;;10453338;28;20228;-71
2021/08/01 15:57:51;;;;;;;1.93;1.77;;;22.40;38.70;;;;;;10457536;28;20232;-74
2021/08/01 16:03:22;;;;;;;1.70;1.60;;;22.40;38.30;;;;;;10457195;28;20225;-74
2021/08/01 16:08:31;;;;;;;1.90;1.77;;;22.50;38.30;;;;;;10452038;28;20237;-73
2021/08/01 16:13:42;;;;;;;1.70;1.60;;;22.50;38.40;;;;;;10450231;28;20231;-68
2021/08/01 16:18:45;;;;;;;1.87;1.77;;;22.60;38.10;;;;;;10456745;28;20235;-68
2021/08/01 16:23:50;;;;;;;2.47;1.57;;;22.60;38.50;;;;;;10460037;28;20634;-68
2021/08/01 16:28:56;;;;;;;2.20;1.70;;;22.70;38.90;;;;;;10458809;28;20224;-73
2021/08/01 16:33:59;;;;;;;1.70;1.60;;;22.70;37.60;;;;;;10462789;28;20229;-68
2021/08/01 16:39:03;;;;;;;1.60;1.50;;;22.60;38.10;;;;;;10457489;28;20216;-69
2021/08/01 16:44:26;;;;;;;1.83;1.73;;;22.50;37.70;;;;;;10459398;28;20255;-74
2021/08/01 16:49:50;;;;;;;2.00;1.70;;;22.50;37.40;;;;;;10462272;28;20220;-71
2021/08/01 16:55:03;;;;;;;1.80;1.70;;;22.40;37.30;;;;;;10448523;28;20607;-72
2021/08/01 17:00:11;;;;;;;1.50;1.40;;;22.40;37.40;;;;;;10450122;28;20227;-71
2021/08/01 17:05:32;;;;;;;1.80;1.70;;;22.40;37.50;;;;;;10456082;28;20225;-71
2021/08/01 17:10:43;;;;;;;1.83;1.73;;;22.40;37.70;;;;;;10452669;28;20233;-71
2021/08/01 17:15:49;;;;;;;2.00;1.90;;;22.40;37.90;;;;;;10451416;28;20232;-74
2021/08/01 17:20:53;;;;;;;2.10;2.00;;;22.30;38.50;;;;;;10463736;28;20256;-74
2021/08/01 17:25:58;;;;;;;1.97;1.87;;;22.20;38.40;;;;;;10468050;28;20233;-74
2021/08/01 17:31:08;;;;;;;1.83;1.73;;;22.10;38.40;;;;;;10460929;28;20691;-68
2021/08/01 17:36:17;;;;;;;2.17;2.00;;;22.00;39.10;;;;;;10457165;28;20228;-68
2021/08/01 17:41:21;;;;;;;2.13;1.90;;;22.00;39.40;;;;;;10461547;28;20240;-68
2021/08/01 17:46:33;;;;;;;1.80;1.70;;;22.00;39.50;;;;;;10458266;28;20237;-68
2021/08/01 17:51:38;;;;;;;2.00;1.90;;;22.00;39.90;;;;;;10464308;28;20731;-74
2021/08/01 17:56:41;;;;;;;2.80;2.50;;;22.00;39.40;;;;;;10462219;28;20762;-74
2021/08/01 18:01:48;;;;;;;2.30;2.20;;;21.90;39.30;;;;;;10465890;28;20228;-74
2021/08/01 18:07:03;;;;;;;2.57;1.97;;;21.90;39.80;;;;;;10463026;28;20232;-74
2021/08/01 18:12:12;;;;;;;2.47;2.03;;;21.80;40.20;;;;;;10453120;28;20235;-73
2021/08/01 18:17:24;;;;;;;2.30;2.10;;;21.70;40.30;;;;;;10451447;28;20228;-73
2021/08/01 18:22:28;;;;;;;2.40;2.20;;;21.60;40.60;;;;;;10458449;28;20232;-74
2021/08/01 18:27:31;;;;;;;2.37;2.20;;;21.40;40.10;;;;;;10452654;28;20230;-72
2021/08/01 18:32:38;;;;;;;4.40;2.37;;;21.30;40.20;;;;;;10455986;28;20730;-72
2021/08/01 18:37:43;;;;;;;2.30;2.10;;;21.20;41.20;;;;;;10454091;28;20232;-72
2021/08/01 18:42:50;;;;;;;2.63;2.47;;;21.10;41.10;;;;;;10446369;28;20236;-71
2021/08/01 18:47:56;;;;;;;3.47;2.27;;;21.00;41.30;;;;;;10446317;28;20232;-71
2021/08/01 18:53:04;;;;;;;3.57;2.30;;;20.90;41.50;;;;;;10452913;28;20236;-72
2021/08/01 18:58:07;;;;;;;2.00;1.90;;;20.90;41.80;;;;;;10452214;28;20217;-72
2021/08/01 19:03:17;;;;;;;2.77;2.37;;;20.90;40.80;;;;;;10441885;28;20745;-72
2021/08/01 19:08:21;;;;;;;2.63;2.43;;;20.90;41.50;;;;;;10441861;28;20237;-73
2021/08/01 19:13:24;;;;;;;3.00;2.70;;;20.80;41.00;;;;;;10443287;28;20232;-73
2021/08/01 19:18:38;;;;;;;2.47;2.27;;;20.90;40.90;;;;;;10441437;28;20221;-73
2021/08/01 19:23:50;;;;;;;2.03;1.83;;;20.90;41.40;;;;;;10429940;28;20237;-72
2021/08/01 19:28:56;;;;;;;2.00;1.87;;;20.90;41.00;;;;;;10444740;28;20237;-72
2021/08/01 19:34:08;;;;;;;2.17;1.97;;;20.90;40.50;;;;;;10446258;28;20785;-72
2021/08/01 19:39:20;;;;;;;1.87;1.77;;;20.80;40.70;;;;;;10442682;28;20686;-72
2021/08/01 19:44:25;;;;;;;2.00;1.90;;;20.90;41.50;;;;;;10441779;28;20251;-72
2021/08/01 19:49:30;;;;;;;2.10;2.00;;;20.80;40.30;;;;;;10439021;28;20755;-73
2021/08/01 19:54:33;;;;;;;2.37;2.13;;;20.80;40.30;;;;;;10452699;28;20224;-73
2021/08/01 19:59:36;;;;;;;1.90;1.80;;;20.80;40.60;;;;;;10456003;28;20224;-73
2021/08/01 20:04:41;;;;;;;1.97;1.87;;;20.70;40.80;;;;;;10453381;28;20228;-73
2021/08/01 20:09:44;;;;;;;2.13;1.60;;;20.50;41.40;;;;;;10453794;28;20224;-74
2021/08/01 20:14:48;;;;;;;1.70;1.60;;;20.30;40.80;;;;;;10453214;28;20232;-73
2021/08/01 20:19:52;;;;;;;1.60;1.33;;;20.20;40.70;;;;;;10449747;28;20235;-73
2021/08/01 20:24:56;;;;;;;2.47;1.47;;;20.10;41.30;;;;;;10452811;28;20232;-72
2021/08/01 20:29:59;;;;;;;1.23;1.20;;;20.10;41.20;;;;;;10453679;28;20435;-73
2021/08/01 20:35:04;;;;;;;1.33;1.23;;;20.10;41.30;;;;;;10452015;28;20224;-73
2021/08/01 20:40:08;;;;;;;1.93;1.47;;;20.20;41.80;;;;;;10455001;28;20221;-73
2021/08/01 20:45:12;;;;;;;1.63;1.53;;;20.20;41.40;;;;;;10446876;28;20250;-73
2021/08/01 20:50:17;;;;;;;1.57;1.47;;;20.10;41.40;;;;;;10451705;28;20216;-73
2021/08/01 20:55:22;;;;;;;1.90;1.70;;;20.00;41.70;;;;;;10447912;28;20221;-73
2021/08/01 21:00:27;;;;;;;1.47;1.40;;;19.90;41.60;;;;;;10447746;28;20304;-73
2021/08/01 21:05:31;;;;;;;1.70;1.53;;;19.90;41.90;;;;;;10449783;28;20231;-73
2021/08/01 21:10:35;;;;;;;3.53;1.50;;;19.80;42.50;;;;;;10454932;28;20220;-72
2021/08/01 21:15:38;;;;;;;3.10;1.83;;;19.80;42.10;;;;;;10456062;28;20221;-69
2021/08/01 21:20:43;;;;;;;2.10;1.80;;;19.80;42.20;;;;;;10455803;28;20229;-69
2021/08/01 21:25:46;;;;;;;2.50;2.30;;;19.80;42.70;;;;;;10454267;28;20227;-69
2021/08/01 21:30:49;;;;;;;1.93;1.83;;;19.70;42.40;;;;;;10453905;28;20979;-69
2021/08/01 21:35:54;;;;;;;2.70;2.50;;;19.70;42.50;;;;;;10450070;28;20231;-70
2021/08/01 21:40:57;;;;;;;2.83;2.40;;;19.70;43.10;;;;;;10453950;28;20701;-69
2021/08/01 21:46:00;;;;;;;2.80;2.00;;;19.70;42.70;;;;;;10454124;28;20593;-69
2021/08/01 21:51:05;;;;;;;2.17;1.80;;;19.70;42.30;;;;;;10455507;28;20236;-69
2021/08/01 21:56:08;;;;;;;2.80;1.80;;;19.70;42.80;;;;;;10465604;28;20228;-69
2021/08/01 22:01:12;;;;;;;2.30;2.10;;;19.50;42.40;;;;;;10460739;28;20228;-69
2021/08/01 22:06:22;;;;;;;2.03;1.83;;;19.40;42.70;;;;;;10451776;28;20229;-69
2021/08/01 22:11:26;;;;;;;1.87;1.70;;;19.30;43.70;;;;;;10457277;28;20228;-69
2021/08/01 22:16:29;;;;;;;1.80;1.70;;;19.30;43.20;;;;;;10458730;28;20236;-69
2021/08/01 22:21:34;;;;;;;2.40;1.70;;;19.30;43.10;;;;;;10459574;28;20224;-69
2021/08/01 22:26:39;;;;;;;2.33;2.13;;;19.40;43.50;;;;;;10452368;28;20489;-69
2021/08/01 22:31:43;;;;;;;4.33;2.10;;;19.40;43.40;;;;;;10455784;28;20592;-69
2021/08/01 22:36:50;;;;;;;4.53;2.30;;;19.30;43.20;;;;;;10457714;28;20226;-69
2021/08/01 22:41:53;;;;;;;2.33;2.10;;;19.30;43.60;;;;;;10452140;28;20225;-69
2021/08/01 22:46:59;;;;;;;3.93;2.20;;;19.20;43.00;;;;;;10451260;28;20675;-69
2021/08/01 22:52:04;;;;;;;2.77;2.10;;;19.20;43.60;;;;;;10457550;28;20221;-69
2021/08/01 22:57:08;;;;;;;1.90;1.70;;;19.20;43.70;;;;;;10457679;28;20228;-69
2021/08/01 23:02:18;;;;;;;2.90;1.60;;;19.20;43.20;;;;;;10456393;28;20754;-69
2021/08/01 23:07:32;;;;;;;1.90;1.80;;;19.20;43.60;;;;;;10451882;28;20248;-69
2021/08/01 23:12:38;;;;;;;1.80;1.70;;;19.20;43.90;;;;;;10449864;28;20780;-68
2021/08/01 23:17:52;;;;;;;2.17;2.00;;;19.10;43.70;;;;;;10455939;28;20217;-69
2021/08/01 23:23:03;;;;;;;2.00;1.90;;;19.10;44.10;;;;;;10457993;28;20236;-69
2021/08/01 23:28:06;;;;;;;1.90;1.80;;;19.10;43.90;;;;;;10462736;28;20220;-69
2021/08/01 23:33:10;;;;;;;2.00;1.87;;;19.00;43.20;;;;;;10462867;28;20225;-69
2021/08/01 23:38:19;;;;;;;1.83;1.73;;;18.90;43.30;;;;;;10464178;28;20243;-69
2021/08/01 23:43:25;;;;;;;1.90;1.80;;;18.90;44.10;;;;;;10466040;28;21191;-68
2021/08/01 23:48:31;;;;;;;1.93;1.83;;;18.90;43.50;;;;;;10470471;28;20229;-68
2021/08/01 23:53:42;;;;;;;1.87;1.77;;;18.90;43.60;;;;;;10465127;28;20231;-68
2021/08/01 23:59:10;;;;;;;2.17;1.83;;;18.90;44.10;;;;;;10463118;28;20232;-68
